Weather reports worldwide

Advertisment
Newcastle, United Kingdom (3245): temperature & dewpoint: 09.12.2019 17:00:00 - 15.12.2019 17:00:00 (GMT)Newcastle, United Kingdom (3245): wind speed: 09.12.2019 17:00:00 - 15.12.2019 17:00:00 (GMT)Newcastle, United Kingdom (3245): wind direction: 09.12.2019 17:00:00 - 15.12.2019 17:00:00 (GMT)Newcastle, United Kingdom (3245): visibility: 09.12.2019 17:00:00 - 15.12.2019 17:00:00 (GMT)
Date & Time tt [°C] td [°C] ff [km/h] ff [kn] dd vv [km]
15.12.2019 17:00:00 4,0 1,0 11 6 SSW 10
15.12.2019 16:00:00 3,0 0,0 16 9 SSW 10
15.12.2019 15:00:00 4,0 0,0 13 7 SW 10
15.12.2019 14:00:00 5,0 1,0 22 12 WSW 10
15.12.2019 13:00:00 6,0 1,0 11 6 WSW 10
15.12.2019 12:00:00 5,0 2,0 22 12 WSW 10
15.12.2019 11:00:00 4,0 3,0 21 11 WSW 10
15.12.2019 10:00:00 3,0 2,0 16 9 WSW 10
15.12.2019 09:00:00 2,0 1,0 15 8 SW 10
15.12.2019 08:00:00 2,0 2,0 15 8 SW 10
15.12.2019 07:00:00 2,0 2,0 18 10 SW 10
15.12.2019 06:00:00 2,0 2,0 13 7 WSW 10
15.12.2019 05:00:00 1,0 1,0 11 6 W 10
15.12.2019 04:00:00 1,0 1,0 2 1 SW 10
15.12.2019 03:00:00 1,0 1,0 5 3 - 10
15.12.2019 02:00:00 0,0 -1,0 2 1 SE 10
15.12.2019 01:00:00 1,0 0,0 5 3 - 10
15.12.2019 00:00:00 2,0 0,0 5 3 - 10
14.12.2019 23:00:00 3,0 0,0 22 12 SSW 10
14.12.2019 22:00:00 3,0 0,0 26 14 SSW 10
14.12.2019 21:00:00 3,0 -1,0 22 12 SSW 10
14.12.2019 20:00:00 3,0 0,0 21 11 SW 10
14.12.2019 19:00:00 3,0 1,0 18 10 SW 10
14.12.2019 18:00:00 2,0 1,0 26 14 SW 10
14.12.2019 17:00:00 3,0 1,0 28 15 SW 10
14.12.2019 16:00:00 4,0 1,0 34 18 WSW 10
14.12.2019 15:00:00 4,0 1,0 35 19 WSW 10
14.12.2019 14:00:00 4,0 1,0 35 19 W 10
14.12.2019 13:00:00 5,0 2,0 41 22 W 10
14.12.2019 12:00:00 5,0 2,0 39 21 W 10
14.12.2019 11:00:00 5,0 2,0 37 20 W 10
14.12.2019 10:00:00 5,0 2,0 34 18 W 10
14.12.2019 09:00:00 4,0 2,0 34 18 W 10
14.12.2019 08:00:00 4,0 2,0 31 17 W 10
14.12.2019 07:00:00 4,0 2,0 31 17 W 10
14.12.2019 06:00:00 4,0 2,0 31 17 W 10
14.12.2019 05:00:00 4,0 2,0 31 17 W 10
14.12.2019 04:00:00 4,0 2,0 31 17 WSW 10
14.12.2019 03:00:00 4,0 3,0 35 19 W 10
14.12.2019 02:00:00 4,0 4,0 34 18 W 10
14.12.2019 01:00:00 4,0 4,0 21 11 W 10
14.12.2019 00:00:00 3,0 3,0 26 14 W 10
13.12.2019 23:00:00 3,0 3,0 26 14 WSW 10
13.12.2019 22:00:00 5,0 4,0 18 10 WSW 10
13.12.2019 21:00:00 5,0 4,0 11 6 WSW 10
13.12.2019 20:00:00 4,0 3,0 13 7 W 10
13.12.2019 19:00:00 4,0 3,0 11 6 W 10
13.12.2019 18:00:00 4,0 3,0 18 10 W 10
13.12.2019 17:00:00 4,0 3,0 26 14 W 10
13.12.2019 16:00:00 4,0 3,0 28 15 W 10
13.12.2019 15:00:00 5,0 3,0 31 17 W 10
13.12.2019 14:00:00 6,0 4,0 31 17 W 10
13.12.2019 13:00:00 6,0 5,0 35 19 W 10
13.12.2019 12:00:00 5,0 5,0 29 16 W 10
13.12.2019 11:00:00 5,0 5,0 28 15 W 10
13.12.2019 10:00:00 4,0 4,0 29 16 W 10
13.12.2019 09:00:00 3,0 3,0 29 16 W 10
13.12.2019 08:00:00 2,0 2,0 16 9 WSW 10
13.12.2019 07:00:00 2,0 2,0 24 13 W 10
13.12.2019 06:00:00 2,0 2,0 21 11 WSW 10
13.12.2019 05:00:00 2,0 2,0 24 13 W 10
13.12.2019 04:00:00 2,0 2,0 26 14 W 10
13.12.2019 03:00:00 2,0 2,0 21 11 W 10
13.12.2019 02:00:00 2,0 2,0 18 10 W 10
13.12.2019 01:00:00 2,0 2,0 18 10 W 7
13.12.2019 00:00:00 2,0 2,0 11 6 WSW 10
12.12.2019 23:00:00 2,0 2,0 13 7 W 10
12.12.2019 22:00:00 2,0 2,0 9 5 W 8
12.12.2019 21:00:00 2,0 2,0 8 4 WNW 6
12.12.2019 20:00:00 2,0 2,0 5 3 NW 7
12.12.2019 19:00:00 3,0 3,0 2 1 WNW 10
12.12.2019 18:00:00 3,0 3,0 2 1 - 8
12.12.2019 17:00:00 3,0 3,0 5 3 - 8
12.12.2019 16:00:00 3,0 3,0 8 4 SE 8
12.12.2019 15:00:00 3,0 3,0 9 5 S 7
12.12.2019 14:00:00 3,0 3,0 15 8 S 10
12.12.2019 13:00:00 3,0 2,0 8 4 SSE 10
12.12.2019 12:00:00 2,0 2,0 11 6 SSE 10
12.12.2019 11:00:00 2,0 1,0 11 6 SSE 10
12.12.2019 10:00:00 2,0 1,0 13 7 S 10
12.12.2019 09:00:00 1,0 1,0 11 6 SSE 10
12.12.2019 08:00:00 2,0 1,0 11 6 S 10
12.12.2019 07:00:00 2,0 1,0 13 7 S 10
12.12.2019 06:00:00 2,0 1,0 11 6 S 10
12.12.2019 05:00:00 2,0 1,0 9 5 S 10
12.12.2019 04:00:00 2,0 0,0 9 5 SW 10
12.12.2019 03:00:00 1,0 0,0 8 4 SE 10
12.12.2019 02:00:00 2,0 1,0 11 6 SSW 10
12.12.2019 01:00:00 1,0 0,0 8 4 S 10
12.12.2019 00:00:00 1,0 0,0 5 3 - 10
11.12.2019 23:00:00 2,0 0,0 8 4 S 10
11.12.2019 22:00:00 2,0 1,0 11 6 SSW 10
11.12.2019 21:00:00 2,0 1,0 13 7 SW 10
11.12.2019 20:00:00 2,0 1,0 5 3 - 10
11.12.2019 19:00:00 2,0 1,0 15 8 WSW 10
11.12.2019 18:00:00 2,0 1,0 11 6 SW 10
11.12.2019 17:00:00 3,0 1,0 13 7 WSW 10
11.12.2019 16:00:00 4,0 2,0 18 10 WSW 10
11.12.2019 15:00:00 4,0 2,0 16 9 SW 10
11.12.2019 14:00:00 4,0 2,0 16 9 WSW 10
11.12.2019 13:00:00 4,0 2,0 21 11 SW 10
11.12.2019 12:00:00 6,0 2,0 21 11 SW 10
11.12.2019 11:00:00 5,0 3,0 21 11 SW 10
11.12.2019 10:00:00 4,0 3,0 18 10 SW 10
11.12.2019 09:00:00 4,0 2,0 15 8 SW 10
11.12.2019 08:00:00 5,0 2,0 29 16 SW 10
11.12.2019 07:00:00 4,0 1,0 13 7 SSW 10
11.12.2019 06:00:00 4,0 1,0 24 13 WSW 10
11.12.2019 05:00:00 5,0 1,0 31 17 WSW 10
11.12.2019 04:00:00 - - - - - -
11.12.2019 03:00:00 5,0 2,0 39 21 WSW 10
11.12.2019 02:00:00 5,0 2,0 35 19 WSW 10
11.12.2019 01:00:00 5,0 2,0 26 14 WSW 10
11.12.2019 00:00:00 5,0 3,0 28 15 WSW 10
10.12.2019 23:00:00 5,0 3,0 34 18 WSW 10
10.12.2019 22:00:00 5,0 3,0 31 17 WSW 10
10.12.2019 21:00:00 6,0 4,0 39 21 WSW 10
10.12.2019 20:00:00 5,0 3,0 26 14 WSW 10
10.12.2019 19:00:00 6,0 5,0 41 22 W 10
10.12.2019 18:00:00 6,0 5,0 37 20 W 10
10.12.2019 17:00:00 11,0 11,0 31 17 SSW 10
10.12.2019 16:00:00 11,0 10,0 35 19 SSW 10
10.12.2019 15:00:00 11,0 10,0 37 20 S 10
10.12.2019 14:00:00 11,0 9,0 41 22 SSW 10
10.12.2019 13:00:00 10,0 8,0 41 22 S 10
10.12.2019 12:00:00 9,0 8,0 16 9 S 10
10.12.2019 11:00:00 7,0 5,0 28 15 S 10
10.12.2019 10:00:00 6,0 5,0 21 11 S 10
10.12.2019 09:00:00 6,0 5,0 29 16 S 10
10.12.2019 08:00:00 6,0 4,0 29 16 S 10
10.12.2019 07:00:00 5,0 3,0 24 13 SSW 10
10.12.2019 06:00:00 5,0 3,0 24 13 S 10
10.12.2019 05:00:00 3,0 2,0 8 4 SE 10
10.12.2019 04:00:00 2,0 1,0 9 5 SSE 10
10.12.2019 03:00:00 - - - - - -
10.12.2019 02:00:00 2,0 1,0 9 5 S 10
10.12.2019 01:00:00 2,0 0,0 9 5 SSW 10
10.12.2019 00:00:00 1,0 0,0 11 6 S 10
09.12.2019 23:00:00 1,0 0,0 9 5 S 10
09.12.2019 22:00:00 0,0 -1,0 8 4 SSW 10
09.12.2019 21:00:00 0,0 0,0 8 4 WSW 10
09.12.2019 20:00:00 1,0 0,0 11 6 SW 10
09.12.2019 19:00:00 1,0 0,0 11 6 W 10
09.12.2019 18:00:00 2,0 1,0 15 8 W 10
09.12.2019 17:00:00 2,0 0,0 16 9 W 10

tt = temperature
td = dewpoint
ff = wind speed
dd = wind direction
vv = visibility

Next stations